Time;durP1;ratioP1;P1;durP2;ratioP2;P2;SDS_P1;SDS_P2;PMS_P1;PMS_P2;Temp;Humidity;BMP_temperature;BMP_pressure;BME280_temperature;BME280_humidity;BME280_pressure;Samples;Min_cycle;Max_cycle;Signal;HPM_P1;HPM_P2
2021/07/04 03:35:12;;;;;;;8.63;6.47;;;;;;;22.91;59.06;98456.16;6863621;28;20218;-84
2021/07/04 03:38:34;;;;;;;9.07;6.93;;;;;;;22.96;58.82;98433.28;6859565;28;20193;-84
2021/07/04 03:41:56;;;;;;;6.40;5.80;;;;;;;23.00;58.53;98434.31;6844942;28;20268;-84
2021/07/04 03:45:17;;;;;;;6.83;5.80;;;;;;;23.11;58.39;98435.81;6832623;28;20205;-84
2021/07/04 03:48:39;;;;;;;6.63;5.93;;;;;;;23.03;58.03;98448.31;6833612;29;20217;-84
2021/07/04 03:52:02;;;;;;;8.47;6.27;;;;;;;23.18;58.40;98450.09;6832997;28;20611;-84
2021/07/04 03:55:24;;;;;;;6.73;6.13;;;;;;;23.15;57.94;98434.13;6833046;28;20663;-84
2021/07/04 03:58:46;;;;;;;7.70;6.43;;;;;;;23.07;58.88;98452.09;6833472;28;20211;-84
2021/07/04 04:02:07;;;;;;;6.03;5.50;;;;;;;22.96;58.87;98441.53;6832857;28;20250;-84
2021/07/04 04:05:29;;;;;;;6.30;5.73;;;;;;;23.39;57.42;98457.78;6838380;28;20689;-84
2021/07/04 04:08:52;;;;;;;5.83;5.33;;;;;;;23.26;57.56;98419.16;6838306;28;20217;-84
2021/07/04 04:12:14;;;;;;;6.33;5.70;;;;;;;23.44;57.23;98443.94;6837356;28;20254;-84
2021/07/04 04:15:35;;;;;;;5.93;5.40;;;;;;;23.30;58.49;98447.72;6838167;28;20706;-84
2021/07/04 04:18:57;;;;;;;6.13;5.47;;;;;;;23.41;57.92;98447.28;6837959;28;20246;-84
2021/07/04 04:22:19;;;;;;;7.43;5.47;;;;;;;23.49;57.65;98446.59;6836812;28;20244;-84
2021/07/04 04:25:42;;;;;;;5.77;5.27;;;;;;;23.48;57.71;98444.16;6837966;28;20217;-84
2021/07/04 04:29:04;;;;;;;6.10;5.50;;;;;;;23.44;56.76;98449.44;6837230;28;20207;-84
2021/07/04 04:32:26;;;;;;;6.40;5.80;;;;;;;23.48;57.09;98447.72;6835650;28;20323;-84
2021/07/04 04:35:47;;;;;;;6.57;5.93;;;;;;;23.57;57.51;98450.63;6837703;29;20213;-84
2021/07/04 04:39:09;;;;;;;6.47;5.87;;;;;;;23.56;57.52;98455.34;6837051;29;20211;-84
2021/07/04 04:42:34;;;;;;;6.57;5.87;;;;;;;23.90;56.06;98453.19;6836698;28;20253;-84
2021/07/04 04:45:55;;;;;;;6.07;5.57;;;;;;;23.85;55.31;98419.38;6837012;28;20206;-84
2021/07/04 04:49:17;;;;;;;6.47;5.93;;;;;;;23.89;56.66;98442.50;6836679;29;20215;-84
2021/07/04 04:52:38;;;;;;;7.27;5.73;;;;;;;24.45;54.51;98452.28;6836407;28;20233;-84
2021/07/04 04:56:00;;;;;;;6.30;5.70;;;;;;;24.52;54.92;98435.31;6836552;29;20216;-84
2021/07/04 04:59:23;;;;;;;9.03;5.67;;;;;;;24.83;53.07;98403.34;6836487;28;20258;-84
2021/07/04 05:02:45;;;;;;;7.20;5.27;;;;;;;24.62;53.75;98424.97;6836166;28;20603;-84
2021/07/04 05:06:06;;;;;;;6.47;5.40;;;;;;;24.29;55.00;98404.03;6836831;28;20721;-84
2021/07/04 05:09:28;;;;;;;6.03;5.43;;;;;;;24.52;54.76;98427.88;6836018;29;20221;-84
2021/07/04 05:12:50;;;;;;;6.37;5.67;;;;;;;24.88;53.32;98420.59;6835608;28;20277;-84
2021/07/04 05:16:13;;;;;;;6.10;5.50;;;;;;;24.76;53.34;98413.94;6835421;28;20701;-84
2021/07/04 05:19:34;;;;;;;5.90;5.30;;;;;;;25.07;52.59;98423.25;6836502;28;20215;-84
2021/07/04 05:22:56;;;;;;;5.20;4.70;;;;;;;25.06;52.64;98416.91;6835607;28;20229;-84
2021/07/04 05:26:18;;;;;;;5.50;4.93;;;;;;;25.39;51.05;98406.56;6836176;28;20247;-84
2021/07/04 05:29:40;;;;;;;5.73;4.80;;;;;;;25.34;51.19;98409.44;6836387;29;20242;-84
2021/07/04 05:33:03;;;;;;;6.80;5.10;;;;;;;25.19;52.25;98398.69;6834366;28;20235;-84
2021/07/04 05:36:25;;;;;;;4.87;4.47;;;;;;;24.78;53.65;98404.22;6836040;29;20233;-84
2021/07/04 05:39:46;;;;;;;6.90;5.00;;;;;;;24.76;54.14;98394.63;6835829;29;20784;-84
2021/07/04 05:43:08;;;;;;;5.10;4.70;;;;;;;24.30;54.39;98391.91;6835168;28;20330;-84
2021/07/04 05:46:30;;;;;;;5.67;5.17;;;;;;;24.36;54.62;98379.66;6835812;28;20817;-84
2021/07/04 05:49:53;;;;;;;5.20;4.70;;;;;;;25.35;51.33;98373.25;6835914;29;20245;-84
2021/07/04 05:53:14;;;;;;;5.60;5.10;;;;;;;25.21;51.79;98382.66;6834857;28;20710;-84
2021/07/04 05:56:36;;;;;;;6.07;5.57;;;;;;;25.09;51.73;98366.63;6834600;28;20207;-84
2021/07/04 05:59:58;;;;;;;4.93;4.37;;;;;;;26.28;49.15;98373.16;6835050;29;20411;-84
2021/07/04 06:03:19;;;;;;;4.83;4.43;;;;;;;25.54;50.34;98373.88;6834073;28;20242;-84
2021/07/04 06:06:42;;;;;;;4.60;4.20;;;;;;;26.41;47.76;98376.97;6834874;28;20197;-84
2021/07/04 06:10:05;;;;;;;4.03;3.73;;;;;;;26.84;46.71;98353.09;6835117;29;20198;-84
2021/07/04 06:13:26;;;;;;;4.27;3.87;;;;;;;27.09;45.62;98377.25;6834257;28;20236;-84
2021/07/04 06:16:48;;;;;;;4.03;3.73;;;;;;;26.58;46.91;98372.38;6834506;28;20223;-84
2021/07/04 06:20:11;;;;;;;3.73;3.43;;;;;;;26.95;45.99;98376.59;6835033;29;20214;-84
2021/07/04 06:23:35;;;;;;;3.87;3.57;;;;;;;27.08;45.63;98379.19;6834013;29;20268;-84
2021/07/04 06:26:56;;;;;;;4.00;3.60;;;;;;;27.10;45.32;98376.94;6834651;28;20211;-84
2021/07/04 06:30:19;;;;;;;4.43;4.13;;;;;;;27.57;44.86;98375.25;6834362;28;20580;-84
2021/07/04 06:33:40;;;;;;;4.23;3.70;;;;;;;27.57;44.51;98378.00;6833644;28;20229;-84
2021/07/04 06:37:02;;;;;;;4.30;3.90;;;;;;;27.77;43.72;98380.97;6834600;29;20374;-84
2021/07/04 06:40:25;;;;;;;4.00;3.60;;;;;;;27.86;44.03;98369.91;6834506;28;20577;-84
2021/07/04 06:43:46;;;;;;;4.17;3.53;;;;;;;28.50;42.85;98360.50;6833767;29;20239;-85
2021/07/04 06:47:08;;;;;;;3.90;3.60;;;;;;;28.82;41.85;98365.41;6834542;28;20705;-84
2021/07/04 06:50:30;;;;;;;4.03;3.63;;;;;;;29.12;41.48;98356.78;6834351;28;20234;-84
2021/07/04 06:53:52;;;;;;;4.43;3.97;;;;;;;29.12;40.43;98348.47;6833457;28;20314;-84
2021/07/04 06:57:27;;;;;;;5.03;3.33;;;;;;;29.33;40.33;98357.66;6833941;29;20215;-85
2021/07/04 07:00:49;;;;;;;4.37;3.93;;;;;;;29.14;40.40;98354.47;6834277;28;20698;-84
2021/07/04 07:04:11;;;;;;;4.47;4.13;;;;;;;29.32;40.40;98369.88;6833841;28;20238;-85
2021/07/04 07:07:33;;;;;;;4.10;3.80;;;;;;;29.57;39.52;98363.38;6834257;29;20686;-85
2021/07/04 07:10:55;;;;;;;3.40;3.20;;;;;;;29.55;39.37;98349.00;6833527;28;20226;-84
2021/07/04 07:14:18;;;;;;;4.50;4.10;;;;;;;28.20;41.04;98370.66;6832815;28;20578;-84
2021/07/04 07:17:40;;;;;;;3.80;3.50;;;;;;;28.22;42.44;98362.00;6841888;28;20643;-85
2021/07/04 07:21:02;;;;;;;4.47;4.07;;;;;;;28.36;41.22;98330.16;6859713;28;20223;-85
2021/07/04 07:24:23;;;;;;;4.20;3.80;;;;;;;27.93;42.48;98356.34;6832849;28;20229;-85
2021/07/04 07:27:45;;;;;;;4.00;3.70;;;;;;;27.41;43.14;98313.16;6833371;28;20218;-84
2021/07/04 07:31:08;;;;;;;4.03;3.63;;;;;;;28.19;41.61;98344.06;6832153;28;20725;-85
2021/07/04 07:34:30;;;;;;;4.37;3.70;;;;;;;28.36;42.48;98351.53;6841918;28;20221;-84
2021/07/04 07:37:52;;;;;;;4.80;4.17;;;;;;;27.65;43.03;98355.84;6861559;28;20214;-85
2021/07/04 07:41:14;;;;;;;4.77;3.70;;;;;;;28.01;44.12;98353.56;6865213;28;20232;-84
2021/07/04 07:44:35;;;;;;;5.20;3.60;;;;;;;28.46;43.48;98324.28;6864439;28;20887;-85
2021/07/04 07:47:58;;;;;;;4.00;3.60;;;;;;;29.73;40.13;98330.22;6865099;28;20620;-84
2021/07/04 07:51:20;;;;;;;5.53;4.30;;;;;;;29.41;39.85;98309.53;6864738;28;20230;-85
2021/07/04 07:54:42;;;;;;;4.00;3.67;;;;;;;29.86;40.26;98295.75;6864271;28;20215;-84
2021/07/04 07:58:04;;;;;;;4.87;4.20;;;;;;;28.89;40.68;98277.69;6864369;28;20219;-85
2021/07/04 08:01:25;;;;;;;4.30;3.87;;;;;;;28.73;41.87;98270.31;6864349;28;20229;-84
2021/07/04 08:04:48;;;;;;;4.90;4.40;;;;;;;29.41;40.52;98297.59;6863331;28;20228;-84
2021/07/04 08:08:10;;;;;;;4.90;4.40;;;;;;;29.17;39.64;98303.84;6864282;28;20216;-85
2021/07/04 08:11:32;;;;;;;5.30;4.80;;;;;;;28.23;41.86;98300.69;6864336;28;20237;-84
2021/07/04 08:14:53;;;;;;;4.50;4.10;;;;;;;28.27;41.46;98293.34;6863640;28;20205;-84
2021/07/04 08:18:15;;;;;;;4.17;3.83;;;;;;;27.24;44.26;98282.72;6863268;28;20199;-84
2021/07/04 08:21:38;;;;;;;5.07;4.00;;;;;;;29.51;39.52;98292.47;6864153;28;20730;-85
2021/07/04 08:25:00;;;;;;;5.50;4.70;;;;;;;29.08;38.69;98297.53;6864003;28;20207;-84
2021/07/04 08:28:21;;;;;;;4.93;4.50;;;;;;;28.02;42.57;98282.31;6864479;28;20216;-84
2021/07/04 08:31:43;;;;;;;5.10;3.93;;;;;;;27.64;42.88;98268.34;6863188;28;20745;-84
2021/07/04 08:35:07;;;;;;;4.43;4.03;;;;;;;29.12;40.43;98290.16;6863328;28;20213;-84
2021/07/04 08:38:30;;;;;;;4.33;3.93;;;;;;;30.01;38.36;98289.56;6864040;28;20225;-84
2021/07/04 08:41:51;;;;;;;4.50;3.97;;;;;;;29.69;38.78;98271.72;6864028;28;20234;-84
2021/07/04 08:45:13;;;;;;;3.83;3.50;;;;;;;30.28;37.81;98292.53;6863137;28;20209;-84
2021/07/04 08:48:35;;;;;;;4.13;3.83;;;;;;;30.88;36.30;98267.53;6862760;28;20211;-85
2021/07/04 08:51:56;;;;;;;4.37;3.90;;;;;;;30.77;36.15;98302.56;6863427;28;20223;-84
2021/07/04 08:55:20;;;;;;;4.53;4.13;;;;;;;30.18;37.75;98300.50;6863087;28;20207;-84
2021/07/04 08:58:41;;;;;;;3.60;3.30;;;;;;;30.98;35.84;98300.47;6863420;28;20230;-85
2021/07/04 09:02:04;;;;;;;3.93;3.53;;;;;;;30.91;36.06;98272.38;6863740;28;20230;-84
2021/07/04 09:05:25;;;;;;;3.57;3.27;;;;;;;30.56;36.33;98271.25;6863180;28;20214;-85
2021/07/04 09:08:47;;;;;;;4.37;3.43;;;;;;;30.70;34.70;98291.22;6863547;28;20204;-84
2021/07/04 09:12:12;;;;;;;3.27;3.07;;;;;;;30.80;35.18;98284.38;6863439;28;20243;-85
2021/07/04 09:15:33;;;;;;;3.43;3.23;;;;;;;30.72;35.05;98274.16;6863815;28;20688;-85
2021/07/04 09:19:10;;;;;;;3.53;3.23;;;;;;;29.44;38.31;98285.81;6863468;28;20207;-84
2021/07/04 09:22:34;;;;;;;4.07;3.77;;;;;;;29.35;38.22;98279.50;6860187;28;20246;-84
2021/07/04 09:25:56;;;;;;;3.20;3.00;;;;;;;30.00;38.60;98276.78;6862996;28;20212;-85
2021/07/04 09:29:40;;;;;;;5.43;3.30;;;;;;;29.96;37.03;98278.66;6863301;28;20707;-84
2021/07/04 09:33:13;;;;;;;3.43;3.13;;;;;;;30.22;36.45;98277.22;6890176;23;20710;-85
2021/07/04 09:36:36;;;;;;;3.70;2.90;;;;;;;30.86;35.75;98264.31;6872559;28;20679;-86
2021/07/04 09:40:16;;;;;;;4.50;3.13;;;;;;;30.41;35.52;98277.47;6870902;28;20211;-85
2021/07/04 09:43:38;;;;;;;3.40;3.10;;;;;;;30.32;35.41;98254.50;6861555;28;20247;-85
2021/07/04 09:47:18;;;;;;;3.40;3.10;;;;;;;29.96;37.20;98246.06;6861314;28;20215;-85
2021/07/04 09:50:41;;;;;;;3.40;3.13;;;;;;;31.29;33.85;98235.78;6861363;28;20234;-85
2021/07/04 09:54:03;;;;;;;2.97;2.77;;;;;;;31.75;33.38;98222.03;6861080;28;20215;-85
2021/07/04 09:57:25;;;;;;;3.37;3.13;;;;;;;31.46;33.51;98233.53;6861409;28;20212;-85
2021/07/04 10:00:48;;;;;;;3.67;3.17;;;;;;;31.75;32.83;98230.41;6861297;28;20230;-85
2021/07/04 10:04:25;;;;;;;3.50;3.20;;;;;;;32.24;32.01;98209.44;6860610;28;20229;-85
2021/07/04 10:07:48;;;;;;;3.40;3.13;;;;;;;32.08;32.26;98200.19;6855627;28;20661;-85
2021/07/04 10:11:11;;;;;;;3.37;3.07;;;;;;;31.34;33.91;98196.53;6860489;28;20718;-85
2021/07/04 10:14:33;;;;;;;3.80;3.20;;;;;;;31.80;32.36;98199.47;6860561;28;20206;-85
2021/07/04 10:17:56;;;;;;;3.40;3.10;;;;;;;31.83;33.37;98201.53;6861278;28;20209;-85
2021/07/04 10:21:20;;;;;;;3.60;3.27;;;;;;;31.35;33.30;98179.47;6860921;28;20230;-85
2021/07/04 10:24:41;;;;;;;3.50;3.07;;;;;;;30.84;33.55;98134.97;6860399;28;20233;-85
2021/07/04 10:28:04;;;;;;;3.40;3.10;;;;;;;31.58;32.85;98179.69;6863623;28;20228;-85
2021/07/04 10:31:26;;;;;;;3.27;2.97;;;;;;;31.31;33.79;98177.75;6859895;28;20233;-84
2021/07/04 10:34:50;;;;;;;3.30;3.07;;;;;;;31.58;33.00;98182.47;6860172;28;20220;-84
2021/07/04 10:38:15;;;;;;;3.50;3.20;;;;;;;31.12;34.35;98163.59;6862368;28;20219;-85
2021/07/04 10:41:38;;;;;;;3.40;3.10;;;;;;;30.70;34.52;98156.78;6875806;28;20232;-84
2021/07/04 10:45:00;;;;;;;3.23;2.97;;;;;;;31.11;34.53;98184.28;6875662;28;20240;-85
2021/07/04 10:48:24;;;;;;;3.23;3.00;;;;;;;30.57;35.63;98185.78;6864330;28;20216;-85
2021/07/04 10:51:56;;;;;;;4.17;3.87;;;;;;;30.28;36.28;98164.59;6861141;28;20239;-85
2021/07/04 10:55:30;;;;;;;4.07;3.67;;;;;;;29.89;37.28;98197.78;6859821;28;20214;-85
2021/07/04 10:59:01;;;;;;;4.17;3.43;;;;;;;30.07;37.29;98191.66;6861041;28;20198;-85
2021/07/04 11:02:42;;;;;;;3.47;3.17;;;;;;;30.18;37.30;98186.47;6860114;28;20242;-84
2021/07/04 11:06:04;;;;;;;4.00;3.20;;;;;;;29.70;38.21;98169.69;6860555;28;20191;-84
2021/07/04 11:09:25;;;;;;;4.40;4.00;;;;;;;29.49;39.52;98163.38;6860428;28;20233;-84
2021/07/04 11:12:49;;;;;;;4.03;3.73;;;;;;;29.47;39.55;98174.00;6861824;28;20590;-84
2021/07/04 11:16:19;;;;;;;3.90;3.60;;;;;;;29.76;39.54;98165.53;6866345;28;20218;-85
2021/07/04 11:20:08;;;;;;;3.93;3.63;;;;;;;30.27;38.47;98165.75;6865805;28;20307;-85
2021/07/04 11:23:30;;;;;;;3.77;3.47;;;;;;;30.72;37.03;98151.69;6864955;28;20238;-85
2021/07/04 11:27:20;;;;;;;3.73;3.43;;;;;;;30.72;36.87;98144.13;6866068;28;20215;-85
2021/07/04 11:30:43;;;;;;;4.87;3.60;;;;;;;30.28;37.34;98139.56;6864899;28;20246;-84
2021/07/04 11:34:07;;;;;;;4.07;3.77;;;;;;;30.28;35.80;98111.72;6865297;28;20708;-84
2021/07/04 11:37:37;;;;;;;3.73;3.43;;;;;;;30.40;37.62;98122.84;6866524;28;20209;-85
2021/07/04 11:40:59;;;;;;;3.97;3.33;;;;;;;30.85;36.49;98084.47;6865790;28;20227;-84
2021/07/04 11:44:24;;;;;;;4.33;3.10;;;;;;;31.00;34.99;98071.75;6866414;28;20228;-85
2021/07/04 11:47:56;;;;;;;4.33;3.57;;;;;;;30.26;35.79;98069.53;6866835;28;20690;-85
2021/07/04 11:51:23;;;;;;;9.67;8.77;;;;;;;30.63;36.41;98089.75;6866679;28;20704;-84
2021/07/04 11:54:44;;;;;;;5.07;4.67;;;;;;;30.55;37.21;98074.78;6864561;28;20228;-85
2021/07/04 11:58:06;;;;;;;5.13;4.73;;;;;;;31.34;35.01;98088.69;6865308;28;20211;-85
2021/07/04 12:01:28;;;;;;;7.60;6.83;;;;;;;30.72;35.80;98073.75;6864821;28;20244;-85
2021/07/04 12:04:51;;;;;;;4.17;3.87;;;;;;;30.61;36.17;98051.13;6864040;28;20229;-85
2021/07/04 12:08:13;;;;;;;3.60;3.30;;;;;;;31.41;34.78;98061.00;6865173;28;20230;-85
2021/07/04 12:11:42;;;;;;;4.20;3.53;;;;;;;31.19;34.03;98058.81;6865078;28;20279;-85
2021/07/04 12:15:06;;;;;;;4.13;3.40;;;;;;;31.51;33.62;98062.44;6864094;28;20212;-85
2021/07/04 12:18:28;;;;;;;3.27;3.07;;;;;;;30.93;35.35;98077.13;6864732;28;20211;-85
2021/07/04 12:21:51;;;;;;;3.50;3.20;;;;;;;31.05;35.32;98083.47;6864477;28;20235;-85
2021/07/04 12:25:17;;;;;;;4.27;3.20;;;;;;;31.12;35.18;98075.31;6863652;28;20688;-84
2021/07/04 12:28:39;;;;;;;3.43;3.13;;;;;;;30.21;35.65;98061.44;6864435;28;20200;-84
2021/07/04 12:32:05;;;;;;;3.53;3.20;;;;;;;29.74;37.24;98076.97;6862416;28;20607;-85
2021/07/04 12:35:29;;;;;;;3.10;2.90;;;;;;;30.00;35.64;98065.47;6863951;28;20214;-85
2021/07/04 12:38:52;;;;;;;3.27;2.97;;;;;;;30.53;35.37;98062.41;6863926;28;20205;-85
2021/07/04 12:42:23;;;;;;;3.33;3.03;;;;;;;30.42;35.08;98005.66;6863342;28;20228;-85
2021/07/04 12:45:46;;;;;;;3.43;3.13;;;;;;;30.76;34.64;98061.56;6863655;28;20322;-85
2021/07/04 12:49:13;;;;;;;4.27;3.03;;;;;;;30.50;35.17;98077.84;6863777;28;20702;-84
2021/07/04 12:52:35;;;;;;;3.40;3.10;;;;;;;30.57;35.16;98053.00;6863346;28;20642;-85
2021/07/04 12:55:58;;;;;;;3.50;3.20;;;;;;;30.55;35.69;98072.00;6864120;28;20213;-84
2021/07/04 12:59:25;;;;;;;3.07;2.87;;;;;;;30.77;35.54;98056.81;6863356;28;20222;-84
2021/07/04 13:02:47;;;;;;;3.17;2.97;;;;;;;31.37;33.83;98017.50;6862961;28;20701;-85
2021/07/04 13:06:10;;;;;;;3.40;3.20;;;;;;;30.84;34.26;98057.00;6863550;28;20202;-84
2021/07/04 13:09:44;;;;;;;3.50;3.20;;;;;;;31.10;34.04;98043.41;6863076;28;20223;-85
2021/07/04 13:13:11;;;;;;;5.73;3.20;;;;;;;30.47;33.33;98042.38;6869454;28;20738;-85
2021/07/04 13:16:33;;;;;;;3.70;3.40;;;;;;;31.07;33.07;98047.72;6871994;28;20212;-84
2021/07/04 13:19:56;;;;;;;4.13;3.10;;;;;;;30.10;34.31;98043.63;6863321;28;20232;-84
2021/07/04 13:23:18;;;;;;;3.43;3.20;;;;;;;30.26;33.94;98038.94;6875697;28;20231;-84
2021/07/04 13:26:40;;;;;;;3.40;3.10;;;;;;;30.66;34.19;98022.28;6863255;28;20742;-84
2021/07/04 13:30:11;;;;;;;3.77;3.47;;;;;;;30.91;34.04;98038.50;6862646;28;20247;-85
2021/07/04 13:33:34;;;;;;;3.83;3.53;;;;;;;30.35;37.09;98034.06;6860135;28;20225;-85
2021/07/04 13:36:56;;;;;;;4.23;3.87;;;;;;;30.22;36.41;98045.56;6861534;28;20237;-84
2021/07/04 13:40:17;;;;;;;4.40;3.90;;;;;;;31.69;34.60;98044.19;6862335;28;20205;-85
2021/07/04 13:43:39;;;;;;;4.30;3.90;;;;;;;30.97;34.67;98025.16;6861793;28;20809;-85
2021/07/04 13:47:02;;;;;;;4.10;3.80;;;;;;;30.84;36.23;98035.53;6862292;28;20211;-85
2021/07/04 13:50:24;;;;;;;4.03;3.73;;;;;;;31.49;34.74;98043.28;6861855;28;20205;-85
2021/07/04 13:53:46;;;;;;;4.00;3.70;;;;;;;30.54;35.38;98039.78;6861710;28;20239;-85
2021/07/04 13:57:23;;;;;;;4.10;3.67;;;;;;;30.55;36.08;98027.50;6862172;28;20244;-85
2021/07/04 14:00:47;;;;;;;4.23;3.83;;;;;;;30.62;35.94;98043.59;6778914;29;20231;-85
2021/07/04 14:04:10;;;;;;;3.97;3.67;;;;;;;31.23;34.98;98033.84;6778451;29;20229;-85
2021/07/04 14:07:31;;;;;;;3.70;3.30;;;;;;;31.41;35.29;98041.50;6779384;29;20219;-85
2021/07/04 14:10:53;;;;;;;4.00;3.70;;;;;;;31.11;37.25;98033.88;6779151;29;20238;-85
2021/07/04 14:14:15;;;;;;;6.97;4.17;;;;;;;30.94;37.62;98032.22;6778367;29;20209;-85
2021/07/04 14:17:37;;;;;;;4.13;3.83;;;;;;;30.57;38.68;98024.38;6778800;29;20202;-85
2021/07/04 14:21:00;;;;;;;4.70;4.30;;;;;;;29.63;40.99;98049.97;6778598;29;20230;-85
2021/07/04 14:24:22;;;;;;;4.33;3.93;;;;;;;29.81;40.89;98057.75;6777918;29;20265;-85
2021/07/04 14:27:44;;;;;;;5.87;5.20;;;;;;;28.38;47.07;98067.19;6778847;29;20208;-84
2021/07/04 14:31:06;;;;;;;12.30;6.63;;;;;;;28.13;50.54;98072.91;6777740;29;20303;-84
2021/07/04 14:34:28;;;;;;;9.33;6.07;;;;;;;26.26;55.59;98070.56;6778365;29;20216;-84
2021/07/04 14:37:52;;;;;;;7.80;7.00;;;;;;;26.90;57.21;98069.59;6829212;28;20216;-84
2021/07/04 14:41:13;;;;;;;6.10;5.60;;;;;;;26.53;56.73;98073.81;6860908;28;20600;-84
2021/07/04 14:44:35;;;;;;;6.63;5.63;;;;;;;26.70;56.05;98073.03;6860321;28;20256;-84
2021/07/04 14:47:57;;;;;;;6.27;5.70;;;;;;;26.85;54.79;98078.06;6860557;28;20201;-84
2021/07/04 14:51:21;;;;;;;5.87;5.37;;;;;;;26.86;54.50;98069.47;6860966;28;20584;-84
2021/07/04 14:54:48;;;;;;;5.97;5.47;;;;;;;26.34;53.64;98081.63;6859779;28;20304;-85
2021/07/04 14:58:11;;;;;;;10.73;5.57;;;;;;;26.33;55.93;98070.91;6860760;28;20251;-85
2021/07/04 15:01:32;;;;;;;5.60;5.10;;;;;;;27.12;55.80;98088.75;6860194;28;20233;-85
2021/07/04 15:04:54;;;;;;;5.83;5.27;;;;;;;26.91;54.57;98049.09;6859890;28;20225;-85
2021/07/04 15:08:16;;;;;;;6.27;5.67;;;;;;;26.94;54.28;98062.25;6860487;28;20209;-85
2021/07/04 15:11:38;;;;;;;5.03;4.63;;;;;;;27.53;53.68;98091.75;6860382;28;20705;-85
2021/07/04 15:15:00;;;;;;;4.17;3.80;;;;;;;27.12;50.22;98080.44;6859871;28;20677;-85
2021/07/04 15:18:22;;;;;;;4.03;3.63;;;;;;;27.60;48.74;98061.59;6860129;28;20209;-85
2021/07/04 15:21:44;;;;;;;4.77;3.77;;;;;;;27.65;49.25;98094.66;6860255;28;20221;-85
2021/07/04 15:25:08;;;;;;;4.23;3.87;;;;;;;27.40;49.98;98090.84;6862934;28;20239;-85
2021/07/04 15:28:32;;;;;;;4.07;3.60;;;;;;;27.53;48.03;98080.69;6859925;28;20198;-85
2021/07/04 15:31:54;;;;;;;3.90;3.60;;;;;;;26.80;49.59;98109.50;6858972;28;20237;-85
2021/07/04 15:35:16;;;;;;;4.13;3.73;;;;;;;27.46;49.39;98100.59;6859156;28;20209;-85
2021/07/04 15:38:37;;;;;;;3.67;3.33;;;;;;;27.61;47.95;98116.66;6860126;28;20205;-85
2021/07/04 15:41:59;;;;;;;4.10;3.40;;;;;;;27.17;50.30;98094.97;6859846;28;20706;-85
2021/07/04 15:45:26;;;;;;;4.00;3.70;;;;;;;27.25;48.62;98104.41;6858898;28;20236;-85
2021/07/04 15:48:47;;;;;;;3.93;3.63;;;;;;;27.10;48.80;98104.88;6859728;28;20194;-86
2021/07/04 15:52:09;;;;;;;3.63;3.33;;;;;;;27.12;49.25;98103.41;6859034;28;20225;-85
2021/07/04 15:55:31;;;;;;;3.83;3.53;;;;;;;27.33;48.70;98103.56;6859100;28;20219;-85
2021/07/04 15:58:53;;;;;;;3.60;3.30;;;;;;;26.86;50.69;98099.88;6861740;28;20596;-85
2021/07/04 16:02:16;;;;;;;3.50;3.20;;;;;;;26.21;50.75;98106.66;6864374;28;20590;-85
2021/07/04 16:05:38;;;;;;;3.30;3.00;;;;;;;25.90;52.49;98115.03;6864617;28;20225;-85
2021/07/04 16:09:00;;;;;;;3.93;3.63;;;;;;;26.54;51.42;98116.97;6864525;28;20204;-85
2021/07/04 16:12:21;;;;;;;3.43;3.23;;;;;;;26.90;51.93;98122.97;6863903;28;20244;-85
2021/07/04 16:15:43;;;;;;;3.83;3.53;;;;;;;26.96;54.40;98132.72;6864295;28;20219;-85
2021/07/04 16:19:06;;;;;;;3.83;3.47;;;;;;;26.52;52.92;98126.69;6864729;28;20216;-85
2021/07/04 16:22:28;;;;;;;2.90;2.70;;;;;;;26.38;52.98;98153.69;6863663;28;20233;-85
2021/07/04 16:25:49;;;;;;;3.70;3.27;;;;;;;25.56;53.55;98163.75;6863858;28;20232;-85
2021/07/04 16:29:11;;;;;;;3.03;2.80;;;;;;;25.19;53.36;98167.72;6864660;28;20216;-85
2021/07/04 16:32:33;;;;;;;2.40;2.20;;;;;;;24.46;52.04;98194.81;6861566;28;20706;-84
2021/07/04 16:35:56;;;;;;;3.30;2.00;;;;;;;24.12;51.51;98177.91;6864290;28;20216;-85
2021/07/04 16:39:18;;;;;;;2.27;1.80;;;;;;;24.36;52.72;98194.22;6864184;28;20684;-85
2021/07/04 16:42:39;;;;;;;1.33;1.23;;;;;;;24.09;51.10;98203.31;6863018;28;20227;-85
2021/07/04 16:46:01;;;;;;;1.43;1.33;;;;;;;24.01;49.33;98172.94;6863752;28;20229;-85
2021/07/04 16:49:23;;;;;;;2.27;1.60;;;;;;;24.17;50.91;98213.63;6863928;28;20233;-85
2021/07/04 16:52:46;;;;;;;1.63;1.53;;;;;;;24.04;51.04;98224.63;6862674;28;20218;-86
2021/07/04 16:56:08;;;;;;;1.67;1.57;;;;;;;24.02;49.02;98233.19;6863381;28;20319;-85
2021/07/04 16:59:30;;;;;;;1.97;1.60;;;;;;;24.32;49.42;98237.28;6863396;28;20210;-85
2021/07/04 17:02:51;;;;;;;1.67;1.57;;;;;;;23.80;50.18;98248.75;6862906;28;20232;-85
2021/07/04 17:06:13;;;;;;;1.60;1.50;;;;;;;23.50;50.87;98232.78;6863596;28;20248;-85
2021/07/04 17:09:36;;;;;;;1.50;1.40;;;;;;;23.09;51.63;98231.78;6862062;28;20218;-85
2021/07/04 17:12:58;;;;;;;2.63;1.60;;;;;;;23.07;52.80;98239.53;6862527;28;20227;-85
2021/07/04 17:16:20;;;;;;;2.67;1.10;;;;;;;23.61;52.27;98245.25;6863093;28;20215;-85
2021/07/04 17:19:42;;;;;;;1.67;1.57;;;;;;;23.63;52.09;98248.50;6862801;28;20210;-85
2021/07/04 17:23:04;;;;;;;1.60;1.43;;;;;;;23.25;51.67;98261.53;6862127;28;20234;-85
2021/07/04 17:26:27;;;;;;;1.93;1.40;;;;;;;22.77;52.94;98272.97;6862642;28;20225;-85
2021/07/04 17:29:49;;;;;;;1.40;1.30;;;;;;;22.75;53.36;98269.69;6862716;28;20215;-85
2021/07/04 17:33:11;;;;;;;1.47;1.30;;;;;;;22.83;53.31;98278.09;6860496;28;20232;-85
2021/07/04 17:36:34;;;;;;;1.17;1.17;;;;;;;22.61;53.55;98290.78;6862761;28;20214;-85
2021/07/04 17:39:56;;;;;;;2.60;1.43;;;;;;;23.65;52.08;98295.84;6862267;28;20280;-85
2021/07/04 17:43:19;;;;;;;1.77;1.67;;;;;;;23.40;52.49;98301.72;6861683;28;20702;-85
2021/07/04 17:46:41;;;;;;;2.17;1.97;;;;;;;23.94;50.89;98304.69;6862318;28;20254;-85
2021/07/04 17:50:04;;;;;;;1.57;1.47;;;;;;;23.77;51.54;98307.97;6861958;28;20271;-85
2021/07/04 17:53:25;;;;;;;1.60;1.50;;;;;;;23.23;51.65;98290.44;6861365;28;20236;-85
2021/07/04 17:56:47;;;;;;;1.60;1.50;;;;;;;23.31;51.21;98307.09;6862144;28;20224;-85
2021/07/04 18:00:13;;;;;;;1.47;1.37;;;;;;;23.87;50.68;98320.75;6862039;28;20210;-85
2021/07/04 18:03:35;;;;;;;1.40;1.30;;;;;;;23.54;50.49;98322.69;6861209;28;20182;-85
2021/07/04 18:06:57;;;;;;;1.57;1.47;;;;;;;23.38;51.47;98310.31;6861490;28;20228;-85
2021/07/04 18:10:18;;;;;;;1.53;1.43;;;;;;;23.31;51.60;98311.78;6861774;28;20211;-85
2021/07/04 18:13:40;;;;;;;1.80;1.70;;;;;;;24.00;52.41;98326.34;6860783;28;20210;-85
2021/07/04 18:17:03;;;;;;;1.77;1.67;;;;;;;24.02;51.00;98326.84;6861342;28;20207;-85
2021/07/04 18:20:25;;;;;;;3.60;1.83;;;;;;;24.20;51.10;98325.94;6861161;28;20205;-85
2021/07/04 18:23:48;;;;;;;1.90;1.80;;;;;;;23.65;52.52;98285.63;6860915;28;20209;-85
2021/07/04 18:27:09;;;;;;;1.93;1.80;;;;;;;23.86;52.66;98310.88;6862422;28;20239;-85
2021/07/04 18:30:31;;;;;;;3.20;1.80;;;;;;;24.17;52.61;98340.34;6859500;28;20205;-85
2021/07/04 18:33:54;;;;;;;2.33;1.63;;;;;;;24.59;51.36;98326.31;6860643;28;20273;-85
2021/07/04 18:37:16;;;;;;;2.20;1.80;;;;;;;24.59;51.27;98344.81;6860434;28;20203;-85
2021/07/04 18:40:38;;;;;;;1.60;1.50;;;;;;;24.61;52.62;98346.13;6860497;28;20221;-85
2021/07/04 18:44:00;;;;;;;1.60;1.50;;;;;;;24.33;53.40;98346.38;6860410;28;20240;-85
2021/07/04 18:47:21;;;;;;;2.00;1.80;;;;;;;24.15;55.04;98345.34;6861123;28;20785;-85
2021/07/04 18:50:44;;;;;;;1.67;1.57;;;;;;;23.95;53.73;98333.88;6860549;28;20225;-85
2021/07/04 18:54:07;;;;;;;2.13;1.70;;;;;;;24.31;52.69;98341.16;6859882;28;20205;-85
2021/07/04 18:57:29;;;;;;;2.43;1.70;;;;;;;23.97;54.20;98340.72;6860789;28;20276;-85
2021/07/04 19:00:51;;;;;;;1.87;1.77;;;;;;;23.67;55.78;98345.88;6860468;28;20231;-85
2021/07/04 19:04:13;;;;;;;2.03;1.93;;;;;;;23.55;55.31;98332.56;6859801;28;20670;-85
2021/07/04 19:07:43;;;;;;;2.13;1.87;;;;;;;23.38;56.72;98361.75;6860291;28;20236;-85
2021/07/04 19:11:05;;;;;;;2.00;1.80;;;;;;;23.59;55.50;98374.91;6860380;28;20279;-85
2021/07/04 19:14:27;;;;;;;2.57;2.07;;;;;;;23.84;55.02;98373.69;6859616;28;20214;-85
2021/07/04 19:17:49;;;;;;;1.80;1.70;;;;;;;23.91;53.60;98376.91;6860212;28;20204;-85
2021/07/04 19:21:10;;;;;;;3.63;1.80;;;;;;;23.66;54.55;98377.28;6860317;28;20265;-85
2021/07/04 19:24:33;;;;;;;1.60;1.50;;;;;;;23.75;54.25;98370.81;6859278;28;20205;-84
2021/07/04 19:27:55;;;;;;;1.50;1.40;;;;;;;23.64;53.34;98369.31;6859976;28;20219;-86
2021/07/04 19:31:17;;;;;;;2.10;1.63;;;;;;;23.43;54.54;98383.69;6859153;28;20240;-85